Tuesday, July 17, 2018, 1:22 AM EDT
Back to Local

KAGC, Pittsburgh Allegheny Cty.

Location: West Mifflin, PA, United States Lat: 40.35
Local Time: 1:22 AM EDT ( 5:22 GMT) Lon: -79.917
Time Zone: US/Eastern Elev: 1253 ft

Show me the last for .
Show Decoded

2018-07-17 00:53 METAR KAGC 170453Z 20006KT 10SM FEW080 23/21 A2992 RMK AO2 LTG DSNT NE SLP126
                 T02330206 403170200 =
2018-07-16 23:53 METAR KAGC 170353Z 22010KT 10SM FEW080 24/21 A2994 RMK AO2 SLP130 T02390206 =
2018-07-16 22:53 METAR KAGC 170253Z 21006KT 10SM FEW110 23/22 A2994 RMK AO2 SLP133 60000
                 T02330217 53005 =
2018-07-16 21:53 METAR KAGC 170153Z 16006KT 10SM CLR 24/21 A2992 RMK AO2 LTG DSNT NE RAE0054
                 SLP125 P0000 T02390206 =
2018-07-16 20:53 METAR KAGC 170053Z 25006KT 10SM VCTS -RA FEW047 BKN075 BKN110 25/21 A2992 RMK
                 AO2 LTG DSNT N AND NW RAB23 TSB23E47 SLP128 P0000 T02500211 =
2018-07-16 20:23 METAR KAGC 170023Z 21013G21KT 10SM -TSRA SCT070 SCT080 27/21 A2992 RMK AO2 RAB23
                 TSB23 P0000 T02720211 =
2018-07-16 19:53 METAR KAGC 162353Z 20006KT 10SM FEW046 28/21 A2991 RMK AO2 LTG DSNT SE AND S
                 SLP124 T02830206 10317 20283 55003 =
2018-07-16 18:53 METAR KAGC 162253Z VRB06KT 10SM FEW041 SCT110 29/22 A2991 RMK AO2 SLP121
                 T02940222 =
2018-07-16 17:53 METAR KAGC 162153Z 19008KT 10SM SCT050TCU 30/21 A2990 RMK AO2 SLP121 T03000206 =
2018-07-16 15:53 METAR KAGC 161953Z 17006KT 10SM FEW047 31/21 A2993 RMK AO2 SLP128 T03060206 =
2018-07-16 14:53 METAR KAGC 161853Z VRB05KT 10SM FEW042 SCT075 31/22 A2996 RMK AO2 SLP138
                 T03110217 =
2018-07-16 13:53 METAR KAGC 161753Z 19009KT 10SM CLR 31/22 A2998 RMK AO2 SLP147 T03060217 10306
                 20211 58012 =
2018-07-16 12:53 METAR KAGC 161653Z VRB05KT 10SM FEW032 30/22 A3000 RMK AO2 SLP154 T03000217 =
2018-07-16 11:53 METAR KAGC 161553Z 20008KT 10SM CLR 29/21 A3002 RMK AO2 SLP159 T02890211 =
2018-07-16 10:53 METAR KAGC 161453Z 14003KT 10SM CLR 27/22 A3002 RMK AO2 SLP160 T02720222 58005 =
2018-07-16 09:53 METAR KAGC 161353Z 00000KT 10SM CLR 26/22 A3003 RMK AO2 SLP163 T02560222 =
2018-07-16 08:53 METAR KAGC 161253Z 21004KT 10SM CLR 23/21 A3004 RMK AO2 SLP169 T02280206 =
2018-07-16 07:53 METAR KAGC 161153Z 16005KT 10SM CLR 21/21 A3004 RMK AO2 SLP168 70025 T02110206
                 10217 20200 51008 =
2018-07-16 06:53 METAR KAGC 161053Z 17005KT 10SM CLR 21/20 A3004 RMK AO2 SLP168 T02060200 =
2018-07-16 05:53 METAR KAGC 160953Z 17005KT 10SM CLR 20/20 A3002 RMK AO2 SLP164 T02000200 =
2018-07-16 04:53 METAR KAGC 160853Z 18006KT 10SM CLR 21/20 A3001 RMK AO2 SLP157 T02060200 55003 =
2018-07-16 03:53 METAR KAGC 160753Z 17006KT 10SM CLR 21/21 A3001 RMK AO2 SLP157 T02110206 =
2018-07-16 02:53 METAR KAGC 160653Z 18006KT 10SM CLR 21/21 A3002 RMK AO2 SLP159 T02110206 =
2018-07-16 01:53 METAR KAGC 160553Z 16005KT 10SM CLR 22/21 A3002 RMK AO2 SLP159 T02170206 10233
                 20217 58005 =

Support USWX by starting your Amazon purchase here.